Time;durP1;ratioP1;P1;durP2;ratioP2;P2;SDS_P1;SDS_P2;PMS_P1;PMS_P2;Temp;Humidity;BMP_temperature;BMP_pressure;BME280_temperature;BME280_humidity;BME280_pressure;Samples;Min_cycle;Max_cycle;Signal;HPM_P1;HPM_P2
2024/03/11 00:00:17;;;;;;;0.90;0.77;;;5.80;99.90;;;;;;5053484;28;20442;-78
2024/03/11 00:02:45;;;;;;;0.50;0.50;;;5.80;99.90;;;;;;5052835;28;20488;-78
2024/03/11 00:05:12;;;;;;;0.53;0.53;;;5.80;99.90;;;;;;5053046;28;20504;-78
2024/03/11 00:07:40;;;;;;;0.83;0.50;;;5.80;99.90;;;;;;5052998;28;20466;-79
2024/03/11 00:10:12;;;;;;;0.80;0.80;;;5.80;99.90;;;;;;5052856;28;20453;-78
2024/03/11 00:12:40;;;;;;;1.40;0.80;;;5.90;99.90;;;;;;5052887;28;20470;-78
2024/03/11 00:15:09;;;;;;;0.90;0.70;;;5.90;99.90;;;;;;5053225;28;20442;-78
2024/03/11 00:17:36;;;;;;;1.00;0.90;;;5.90;99.90;;;;;;5054317;28;20462;-79
2024/03/11 00:20:04;;;;;;;0.67;0.57;;;5.80;99.90;;;;;;5056772;28;20820;-78
2024/03/11 00:22:31;;;;;;;1.90;0.83;;;5.80;99.90;;;;;;5056307;28;20461;-78
2024/03/11 00:24:58;;;;;;;1.47;0.93;;;5.80;99.90;;;;;;5056797;28;20445;-78
2024/03/11 00:27:26;;;;;;;1.07;0.60;;;5.80;99.90;;;;;;5056381;28;20581;-78
2024/03/11 00:29:52;;;;;;;0.60;0.60;;;5.80;99.90;;;;;;5056392;28;20484;-78
2024/03/11 00:32:20;;;;;;;0.80;0.67;;;5.80;99.90;;;;;;5056449;28;20456;-78
2024/03/11 00:34:47;;;;;;;0.50;0.50;;;5.90;99.90;;;;;;5056335;28;20509;-78
2024/03/11 00:37:15;;;;;;;0.73;0.60;;;5.90;99.90;;;;;;5056131;28;20458;-79
2024/03/11 00:39:42;;;;;;;1.83;0.50;;;5.90;99.90;;;;;;5056860;28;20445;-78
2024/03/11 00:42:08;;;;;;;0.70;0.70;;;5.90;99.90;;;;;;5056194;28;20433;-78
2024/03/11 00:44:36;;;;;;;0.80;0.80;;;5.90;99.90;;;;;;5056281;28;20449;-78
2024/03/11 00:47:06;;;;;;;0.40;0.40;;;5.90;99.90;;;;;;5055656;28;20990;-78
2024/03/11 00:49:32;;;;;;;2.90;0.80;;;5.80;99.90;;;;;;5055764;28;20457;-78
2024/03/11 00:52:00;;;;;;;0.63;0.43;;;5.90;99.90;;;;;;5056075;28;20446;-78
2024/03/11 00:54:27;;;;;;;0.60;0.50;;;5.90;99.90;;;;;;5055922;28;20477;-78
2024/03/11 00:56:53;;;;;;;1.10;1.00;;;5.80;99.90;;;;;;5055722;28;20456;-79
2024/03/11 00:59:23;;;;;;;0.50;0.50;;;5.80;99.90;;;;;;5055675;28;20954;-79
2024/03/11 01:01:51;;;;;;;0.70;0.70;;;5.80;99.90;;;;;;5055480;28;20477;-78
2024/03/11 01:04:21;;;;;;;0.70;0.67;;;5.80;99.90;;;;;;5055655;28;20449;-78
2024/03/11 01:06:47;;;;;;;0.50;0.50;;;5.80;99.90;;;;;;5055561;28;20853;-79
2024/03/11 01:09:20;;;;;;;0.77;0.77;;;5.70;99.90;;;;;;5055677;28;20854;-79
2024/03/11 01:11:47;;;;;;;2.03;0.57;;;5.70;99.90;;;;;;5055703;28;20430;-79
2024/03/11 01:14:13;;;;;;;0.60;0.60;;;5.70;99.90;;;;;;5055244;28;20481;-78
2024/03/11 01:16:40;;;;;;;0.60;0.43;;;5.60;99.90;;;;;;5055589;28;20452;-78
2024/03/11 01:19:08;;;;;;;0.90;0.50;;;5.50;99.90;;;;;;5056445;28;20445;-79
2024/03/11 01:21:36;;;;;;;2.20;0.87;;;5.50;99.90;;;;;;5056773;28;20446;-79
2024/03/11 01:24:04;;;;;;;0.60;0.60;;;5.50;99.90;;;;;;5055268;28;20985;-79
2024/03/11 01:26:31;;;;;;;10.90;1.67;;;5.40;99.90;;;;;;5055923;28;20995;-79
2024/03/11 01:28:58;;;;;;;0.50;0.50;;;5.40;99.90;;;;;;5055259;28;20523;-79
2024/03/11 01:31:25;;;;;;;1.03;0.70;;;5.30;99.90;;;;;;5055225;28;20447;-79
2024/03/11 01:33:51;;;;;;;1.17;0.60;;;5.20;99.90;;;;;;5057182;28;20489;-79
2024/03/11 01:36:19;;;;;;;0.57;0.57;;;5.30;99.90;;;;;;5057527;28;20457;-79
2024/03/11 01:38:47;;;;;;;1.67;0.60;;;5.20;99.90;;;;;;5058119;28;20835;-79
2024/03/11 01:41:14;;;;;;;0.90;0.83;;;5.20;99.90;;;;;;5057539;28;20450;-79
2024/03/11 01:43:41;;;;;;;0.67;0.53;;;5.20;99.90;;;;;;5057230;28;20472;-78
2024/03/11 01:46:09;;;;;;;0.53;0.50;;;5.20;99.90;;;;;;5056891;28;20506;-78
2024/03/11 01:48:37;;;;;;;4.93;0.50;;;5.20;99.90;;;;;;5055930;28;20465;-79
2024/03/11 01:51:05;;;;;;;0.50;0.50;;;5.20;99.90;;;;;;5055552;28;20453;-79
2024/03/11 01:53:33;;;;;;;0.70;0.60;;;5.10;99.90;;;;;;5055194;28;20547;-79
2024/03/11 01:56:00;;;;;;;0.60;0.60;;;5.00;99.90;;;;;;5055266;28;20446;-79
2024/03/11 01:58:30;;;;;;;3.50;0.60;;;5.00;99.90;;;;;;5055005;28;20480;-79
2024/03/11 02:00:56;;;;;;;0.40;0.40;;;5.00;99.90;;;;;;5054718;28;20446;-79
2024/03/11 02:03:23;;;;;;;0.60;0.60;;;5.00;99.90;;;;;;5055722;28;20422;-79
2024/03/11 02:05:50;;;;;;;1.37;0.50;;;5.00;99.90;;;;;;5056006;28;20489;-79
2024/03/11 02:08:18;;;;;;;0.43;0.43;;;5.00;99.90;;;;;;5054980;28;20465;-79
2024/03/11 02:10:47;;;;;;;0.50;0.43;;;5.00;99.90;;;;;;5054629;28;20481;-79
2024/03/11 02:13:14;;;;;;;0.40;0.30;;;5.00;99.90;;;;;;5054957;28;20489;-79
2024/03/11 02:15:42;;;;;;;1.00;0.53;;;5.00;99.90;;;;;;5055762;28;20451;-79
2024/03/11 02:18:08;;;;;;;1.33;0.60;;;5.00;99.90;;;;;;5054348;28;20478;-79
2024/03/11 02:20:39;;;;;;;1.27;0.50;;;5.10;99.90;;;;;;5054471;28;20445;-79
2024/03/11 02:23:08;;;;;;;0.60;0.60;;;5.00;99.90;;;;;;5054426;28;20437;-79
2024/03/11 02:25:35;;;;;;;0.87;0.60;;;5.00;99.90;;;;;;5054234;28;20446;-79
2024/03/11 02:28:03;;;;;;;0.73;0.60;;;4.90;99.90;;;;;;5054372;28;20910;-79
2024/03/11 02:30:32;;;;;;;0.70;0.50;;;4.90;99.90;;;;;;5054221;28;20997;-79
2024/03/11 02:32:59;;;;;;;1.53;0.83;;;4.90;99.90;;;;;;5054148;28;20460;-79
2024/03/11 02:35:26;;;;;;;0.87;0.70;;;4.90;99.90;;;;;;5054180;28;20449;-79
2024/03/11 02:37:52;;;;;;;0.37;0.30;;;4.90;99.90;;;;;;5054091;28;20493;-79
2024/03/11 02:40:26;;;;;;;0.73;0.43;;;4.90;99.90;;;;;;5053446;28;20446;-79
2024/03/11 02:42:53;;;;;;;0.37;0.33;;;4.90;99.90;;;;;;5053988;28;20809;-79
2024/03/11 02:45:21;;;;;;;0.70;0.70;;;4.80;99.90;;;;;;5053800;28;20442;-79
2024/03/11 02:47:49;;;;;;;0.60;0.40;;;4.90;99.90;;;;;;5053905;28;20461;-79
2024/03/11 02:50:16;;;;;;;0.60;0.40;;;4.90;99.90;;;;;;5053865;28;20446;-79
2024/03/11 02:52:43;;;;;;;0.50;0.50;;;4.80;99.90;;;;;;5053886;28;20819;-79
2024/03/11 02:55:14;;;;;;;0.50;0.50;;;4.80;99.90;;;;;;5053893;28;20482;-79
2024/03/11 02:57:43;;;;;;;0.40;0.30;;;4.80;99.90;;;;;;5053756;28;20826;-79
2024/03/11 03:00:11;;;;;;;1.27;0.50;;;4.80;99.90;;;;;;5056307;28;20508;-79
2024/03/11 03:02:38;;;;;;;1.27;0.43;;;4.80;99.90;;;;;;5069385;28;20477;-79
2024/03/11 03:05:06;;;;;;;1.70;0.70;;;4.80;99.90;;;;;;5066670;28;20438;-78
2024/03/11 03:07:33;;;;;;;0.50;0.40;;;4.80;99.90;;;;;;5071651;28;21001;-79
2024/03/11 03:09:59;;;;;;;1.57;0.70;;;4.70;99.90;;;;;;5072562;28;20449;-79
2024/03/11 03:12:29;;;;;;;2.23;1.07;;;4.70;99.90;;;;;;5071367;28;20450;-79
2024/03/11 03:14:57;;;;;;;0.40;0.40;;;4.70;99.90;;;;;;5058940;28;20477;-79
2024/03/11 03:17:24;;;;;;;0.60;0.50;;;4.70;99.90;;;;;;5055062;28;20508;-79
2024/03/11 03:19:51;;;;;;;2.30;0.63;;;4.70;99.90;;;;;;5053928;28;21038;-79
2024/03/11 03:22:17;;;;;;;0.33;0.33;;;4.70;99.90;;;;;;5054244;28;20454;-79
2024/03/11 03:24:44;;;;;;;0.67;0.50;;;4.70;99.90;;;;;;5054156;28;20448;-79
2024/03/11 03:27:11;;;;;;;0.60;0.60;;;4.60;99.90;;;;;;5053560;28;21011;-79
2024/03/11 03:29:40;;;;;;;0.30;0.30;;;4.70;99.90;;;;;;5053631;28;20808;-78
2024/03/11 03:32:09;;;;;;;0.50;0.37;;;4.60;99.90;;;;;;5053689;28;20450;-79
2024/03/11 03:34:36;;;;;;;0.40;0.30;;;4.60;99.90;;;;;;5053686;28;20528;-79
2024/03/11 03:37:02;;;;;;;0.40;0.30;;;4.60;99.90;;;;;;5053738;28;20465;-79
2024/03/11 03:39:30;;;;;;;0.40;0.40;;;4.50;99.90;;;;;;5053648;28;20446;-79
2024/03/11 03:41:58;;;;;;;0.40;0.33;;;4.50;99.90;;;;;;5053247;28;20457;-79
2024/03/11 03:44:25;;;;;;;0.40;0.40;;;6.00;99.90;;;;;;5054170;28;20484;-79
2024/03/11 03:46:52;;;;;;;0.40;0.30;;;6.00;99.90;;;;;;5053310;28;20438;-79
2024/03/11 03:49:20;;;;;;;0.30;0.30;;;4.50;99.90;;;;;;5053317;28;20457;-79
2024/03/11 03:51:47;;;;;;;0.70;0.70;;;4.50;99.90;;;;;;5055272;28;20456;-79
2024/03/11 03:54:14;;;;;;;0.40;0.40;;;4.40;99.90;;;;;;5057337;28;20482;-79
2024/03/11 03:56:41;;;;;;;0.37;0.37;;;4.40;99.90;;;;;;5060272;28;20868;-78
2024/03/11 03:59:08;;;;;;;1.17;0.50;;;4.40;99.90;;;;;;5058446;28;20445;-78
2024/03/11 04:01:35;;;;;;;0.30;0.30;;;4.40;99.90;;;;;;5056570;28;20482;-78
2024/03/11 04:04:02;;;;;;;0.40;0.40;;;4.40;99.90;;;;;;5056959;28;20500;-78
2024/03/11 04:06:32;;;;;;;0.40;0.37;;;4.40;99.90;;;;;;5056994;28;20446;-78
2024/03/11 04:08:59;;;;;;;0.40;0.30;;;4.40;99.90;;;;;;5056898;28;20926;-79
2024/03/11 04:11:26;;;;;;;0.40;0.40;;;5.10;99.90;;;;;;5056647;28;20457;-79
2024/03/11 04:13:53;;;;;;;0.40;0.40;;;5.50;99.90;;;;;;5057353;28;20481;-79
2024/03/11 04:16:20;;;;;;;0.40;0.30;;;5.10;99.90;;;;;;5057288;28;20434;-79
2024/03/11 04:18:48;;;;;;;0.40;0.40;;;4.40;99.90;;;;;;5057298;28;20469;-79
2024/03/11 04:21:16;;;;;;;0.60;0.50;;;4.30;99.90;;;;;;5057003;28;20453;-79
2024/03/11 04:23:44;;;;;;;0.50;0.50;;;4.30;99.90;;;;;;5056909;28;20449;-79
2024/03/11 04:26:11;;;;;;;0.40;0.30;;;4.20;99.90;;;;;;5056748;28;20438;-79
2024/03/11 04:28:38;;;;;;;1.10;0.37;;;4.20;99.90;;;;;;5056423;28;20458;-79
2024/03/11 04:31:05;;;;;;;0.90;0.30;;;4.20;99.90;;;;;;5056433;28;20450;-79
2024/03/11 04:33:33;;;;;;;0.47;0.40;;;4.20;99.90;;;;;;5056190;28;20934;-79
2024/03/11 04:36:01;;;;;;;0.40;0.30;;;4.10;99.90;;;;;;5056342;28;20485;-79
2024/03/11 04:38:27;;;;;;;0.30;0.30;;;3.90;99.90;;;;;;5056492;28;20469;-78
2024/03/11 04:40:56;;;;;;;0.97;0.77;;;4.10;99.90;;;;;;5056403;28;20473;-79
2024/03/11 04:43:23;;;;;;;4.00;0.53;;;4.10;99.90;;;;;;5056310;28;20477;-79
2024/03/11 04:45:50;;;;;;;0.53;0.53;;;4.00;99.90;;;;;;5056201;28;20448;-79
2024/03/11 04:48:19;;;;;;;0.77;0.43;;;4.00;99.90;;;;;;5055810;28;20474;-79
2024/03/11 04:50:47;;;;;;;0.50;0.40;;;4.00;99.90;;;;;;5056003;28;20816;-79
2024/03/11 04:53:15;;;;;;;0.40;0.40;;;4.00;99.90;;;;;;5055897;28;20450;-79
2024/03/11 04:55:43;;;;;;;1.03;0.40;;;3.90;99.90;;;;;;5055849;28;20547;-79
2024/03/11 04:58:11;;;;;;;0.60;0.60;;;3.90;99.90;;;;;;5055726;28;21109;-79
2024/03/11 05:00:38;;;;;;;0.47;0.43;;;4.90;99.90;;;;;;5055843;28;20953;-79
2024/03/11 05:03:05;;;;;;;1.33;0.60;;;5.40;99.90;;;;;;5055082;28;20470;-79
2024/03/11 05:05:34;;;;;;;0.83;0.60;;;3.90;99.90;;;;;;5055930;28;20442;-79
2024/03/11 05:08:01;;;;;;;1.13;0.40;;;4.00;99.90;;;;;;5055453;28;20565;-79
2024/03/11 05:10:28;;;;;;;0.43;0.43;;;3.90;99.90;;;;;;5055676;28;20453;-79
2024/03/11 05:12:54;;;;;;;0.40;0.40;;;3.90;99.90;;;;;;5055584;28;20453;-79
2024/03/11 05:15:23;;;;;;;0.87;0.87;;;3.90;99.90;;;;;;5055506;28;20494;-79
2024/03/11 05:17:49;;;;;;;2.10;0.93;;;3.90;99.90;;;;;;5055261;28;20457;-79
2024/03/11 05:20:18;;;;;;;0.50;0.50;;;3.90;99.90;;;;;;5055433;28;20445;-79
2024/03/11 05:22:45;;;;;;;0.43;0.30;;;3.80;99.90;;;;;;5055503;28;20442;-79
2024/03/11 05:25:14;;;;;;;0.40;0.33;;;3.80;99.90;;;;;;5055337;28;20446;-79
2024/03/11 05:27:41;;;;;;;0.60;0.40;;;3.90;99.90;;;;;;5055186;28;20470;-79
2024/03/11 05:30:09;;;;;;;0.60;0.30;;;3.90;99.90;;;;;;5054972;28;20449;-79
2024/03/11 05:32:37;;;;;;;0.43;0.43;;;3.90;99.90;;;;;;5055233;28;20529;-79
2024/03/11 05:35:04;;;;;;;0.30;0.30;;;3.90;99.90;;;;;;5055196;28;20482;-79
2024/03/11 05:37:33;;;;;;;0.40;0.40;;;3.90;99.90;;;;;;5055071;28;20832;-79
2024/03/11 05:40:01;;;;;;;0.60;0.60;;;3.90;99.90;;;;;;5055127;28;20449;-79
2024/03/11 05:42:27;;;;;;;0.40;0.40;;;3.90;99.90;;;;;;5054714;28;21022;-79
2024/03/11 05:44:56;;;;;;;0.47;0.40;;;4.00;99.90;;;;;;5054884;28;20624;-79
2024/03/11 05:47:24;;;;;;;0.40;0.37;;;4.00;99.90;;;;;;5054494;28;20466;-79
2024/03/11 05:49:52;;;;;;;0.30;0.30;;;3.80;99.90;;;;;;5054894;28;20460;-79
2024/03/11 05:52:20;;;;;;;0.30;0.30;;;3.90;99.90;;;;;;5055155;28;20450;-79
2024/03/11 05:54:50;;;;;;;0.30;0.30;;;3.90;99.90;;;;;;5054841;28;20570;-79
2024/03/11 05:57:22;;;;;;;0.47;0.47;;;3.90;99.90;;;;;;5054638;28;20524;-79
2024/03/11 05:59:50;;;;;;;0.60;0.30;;;5.30;99.90;;;;;;5055500;28;20450;-79
2024/03/11 06:02:17;;;;;;;0.60;0.40;;;3.80;99.90;;;;;;5054396;28;20484;-79
2024/03/11 06:04:45;;;;;;;2.20;0.40;;;3.90;99.90;;;;;;5054608;28;20442;-79
2024/03/11 06:07:14;;;;;;;0.47;0.47;;;3.70;99.90;;;;;;5054184;28;20469;-80
2024/03/11 06:09:40;;;;;;;0.60;0.60;;;4.10;99.90;;;;;;5055264;28;20448;-80
2024/03/11 06:12:07;;;;;;;0.57;0.57;;;3.90;99.90;;;;;;5054759;28;20450;-79
2024/03/11 06:14:34;;;;;;;1.10;1.00;;;3.90;99.90;;;;;;5053484;28;20481;-79
2024/03/11 06:17:04;;;;;;;1.00;0.50;;;3.90;99.90;;;;;;5054429;28;20430;-79
2024/03/11 06:19:32;;;;;;;0.40;0.40;;;4.10;99.90;;;;;;5054731;28;20536;-79
2024/03/11 06:21:59;;;;;;;0.43;0.43;;;4.40;99.90;;;;;;5054304;28;20442;-79
2024/03/11 06:24:28;;;;;;;1.53;1.07;;;4.80;99.90;;;;;;5054251;28;20827;-79
2024/03/11 06:26:56;;;;;;;1.33;0.80;;;5.30;99.90;;;;;;5053804;28;20970;-80
2024/03/11 06:29:24;;;;;;;0.90;0.70;;;5.80;99.90;;;;;;5054673;28;20457;-79
2024/03/11 06:31:50;;;;;;;0.80;0.50;;;6.10;99.90;;;;;;5055723;28;20819;-79
2024/03/11 06:34:21;;;;;;;0.63;0.50;;;6.30;99.90;;;;;;5054356;28;20438;-79
2024/03/11 06:36:48;;;;;;;1.13;1.03;;;6.30;99.90;;;;;;5054104;28;20438;-80
2024/03/11 06:39:15;;;;;;;0.50;0.40;;;6.10;99.90;;;;;;5053911;28;20446;-79
2024/03/11 06:41:44;;;;;;;0.80;0.40;;;6.00;99.90;;;;;;5054179;28;20445;-79
2024/03/11 06:44:11;;;;;;;0.50;0.43;;;5.80;99.90;;;;;;5054076;28;20473;-79
2024/03/11 06:46:38;;;;;;;0.97;0.40;;;5.70;99.90;;;;;;5054021;28;20453;-79
2024/03/11 06:49:05;;;;;;;0.50;0.50;;;5.70;99.90;;;;;;5053711;28;20469;-79
2024/03/11 06:51:32;;;;;;;1.03;0.40;;;5.60;99.90;;;;;;5054028;28;20504;-79
2024/03/11 06:53:59;;;;;;;1.90;0.50;;;5.60;99.90;;;;;;5053830;28;20461;-79
2024/03/11 06:56:27;;;;;;;2.20;0.53;;;5.70;99.90;;;;;;5053651;28;20904;-79
2024/03/11 06:58:55;;;;;;;1.60;0.40;;;5.80;99.90;;;;;;5053836;28;20482;-79
2024/03/11 07:01:22;;;;;;;0.77;0.47;;;5.80;99.90;;;;;;5053658;28;20474;-79
2024/03/11 07:03:48;;;;;;;1.13;0.63;;;5.80;99.90;;;;;;5053739;28;20473;-79
2024/03/11 07:06:17;;;;;;;7.40;0.60;;;5.90;99.90;;;;;;5053339;28;20939;-79
2024/03/11 07:08:43;;;;;;;0.40;0.40;;;5.90;99.90;;;;;;5053953;28;20466;-80
2024/03/11 08:42:56;;;;;;;0.60;0.47;;;8.10;99.90;;;;;;4949475;28;20443;-83
2024/03/11 08:45:23;;;;;;;0.50;0.50;;;8.30;99.90;;;;;;5007922;28;20458;-84
2024/03/11 08:47:50;;;;;;;1.67;0.70;;;8.40;99.90;;;;;;5040175;28;20476;-83
2024/03/11 08:50:17;;;;;;;0.57;0.47;;;8.50;99.90;;;;;;5039442;28;20458;-84
2024/03/11 08:52:45;;;;;;;0.70;0.70;;;8.60;99.90;;;;;;5039199;28;20968;-83
2024/03/11 08:55:15;;;;;;;1.10;0.50;;;8.80;99.90;;;;;;5038261;28;20490;-83
2024/03/11 08:57:42;;;;;;;0.50;0.50;;;9.00;99.90;;;;;;5037728;28;20477;-83
2024/03/11 09:00:11;;;;;;;0.40;0.40;;;9.20;99.90;;;;;;5038007;28;20482;-83
2024/03/11 09:02:37;;;;;;;0.80;0.43;;;9.40;99.90;;;;;;5038401;28;20449;-84
2024/03/11 09:05:09;;;;;;;0.80;0.50;;;9.60;99.90;;;;;;5039443;28;20450;-84
2024/03/11 09:07:37;;;;;;;1.10;0.60;;;9.70;99.90;;;;;;5042595;28;20979;-86
2024/03/11 09:10:07;;;;;;;0.50;0.50;;;9.80;99.90;;;;;;5043003;28;20446;-84
2024/03/11 09:12:37;;;;;;;0.40;0.30;;;10.20;99.90;;;;;;5043208;28;20454;-84
2024/03/11 09:15:04;;;;;;;0.60;0.50;;;10.70;99.90;;;;;;5043929;28;20494;-84
2024/03/11 09:17:31;;;;;;;0.40;0.40;;;11.60;99.90;;;;;;5041056;28;20482;-83
2024/03/11 09:19:58;;;;;;;0.50;0.50;;;12.90;99.90;;;;;;5040354;28;20430;-83
2024/03/11 09:22:26;;;;;;;0.93;0.50;;;14.10;99.90;;;;;;5040811;28;20439;-86
2024/03/11 09:24:53;;;;;;;0.60;0.60;;;16.10;99.90;;;;;;5049926;28;20998;-84
2024/03/11 09:27:20;;;;;;;0.40;0.33;;;17.60;99.90;;;;;;5060353;28;20466;-83
2024/03/11 09:29:48;;;;;;;0.50;0.50;;;19.00;99.90;;;;;;5060635;28;20476;-83
2024/03/11 09:32:15;;;;;;;0.87;0.47;;;20.10;99.90;;;;;;5059747;28;20430;-84
2024/03/11 09:34:42;;;;;;;0.73;0.50;;;21.30;99.90;;;;;;5059341;28;20969;-84
2024/03/11 09:37:09;;;;;;;1.23;0.37;;;22.00;97.40;;;;;;5059397;28;20559;-84
2024/03/11 09:39:36;;;;;;;0.77;0.37;;;22.90;94.10;;;;;;5060222;28;20500;-80
2024/03/11 09:42:06;;;;;;;0.40;0.40;;;23.00;91.10;;;;;;5060288;28;20445;-80
2024/03/11 09:44:32;;;;;;;0.50;0.40;;;23.10;89.30;;;;;;5059782;28;20449;-80
2024/03/11 09:47:01;;;;;;;0.40;0.40;;;23.70;86.00;;;;;;5060659;28;20207;-80
2024/03/11 09:49:27;;;;;;;0.30;0.30;;;24.20;79.60;;;;;;5060774;28;20191;-80
2024/03/11 09:51:54;;;;;;;0.30;0.30;;;24.50;77.60;;;;;;5060823;28;20301;-80
2024/03/11 09:54:22;;;;;;;0.40;0.40;;;25.30;76.20;;;;;;5058755;28;20198;-80
2024/03/11 09:56:50;;;;;;;0.40;0.40;;;25.70;74.70;;;;;;5060413;28;20235;-80
2024/03/11 09:59:19;;;;;;;0.43;0.43;;;25.80;71.30;;;;;;5059412;28;20297;-80
2024/03/11 10:01:52;;;;;;;0.50;0.50;;;24.80;70.80;;;;;;5060722;28;20211;-80
2024/03/11 10:04:22;;;;;;;0.40;0.40;;;24.40;70.20;;;;;;5060466;28;20331;-80
2024/03/11 10:06:59;;;;;;;0.80;0.50;;;22.90;71.60;;;;;;5060006;28;20254;-80
2024/03/11 10:09:28;;;;;;;0.40;0.40;;;22.80;74.80;;;;;;5060157;28;20230;-80
2024/03/11 10:12:03;;;;;;;0.50;0.50;;;21.90;73.60;;;;;;5059379;28;20206;-80
2024/03/11 10:14:34;;;;;;;0.60;0.60;;;21.90;77.40;;;;;;5062089;28;20252;-79
2024/03/11 10:17:20;;;;;;;0.50;0.50;;;22.20;77.50;;;;;;5063700;28;20268;-81
2024/03/11 10:19:51;;;;;;;0.47;0.47;;;21.40;76.00;;;;;;5062556;28;20210;-81
2024/03/11 10:22:24;;;;;;;0.50;0.50;;;21.40;77.90;;;;;;5068289;28;20241;-80
2024/03/11 10:24:54;;;;;;;0.40;0.40;;;21.50;76.50;;;;;;5062175;28;20227;-81
2024/03/11 10:27:21;;;;;;;0.50;0.50;;;21.80;78.40;;;;;;5062239;28;20511;-80
2024/03/11 10:29:49;;;;;;;0.53;0.53;;;21.80;78.20;;;;;;5061704;28;20297;-79
2024/03/11 10:32:33;;;;;;;0.50;0.50;;;21.40;76.80;;;;;;5062423;28;20453;-80
2024/03/11 10:35:02;;;;;;;0.40;0.40;;;20.90;77.10;;;;;;5061179;28;20214;-81
2024/03/11 10:37:29;;;;;;;0.47;0.47;;;21.50;75.30;;;;;;5059933;28;20556;-80
2024/03/11 10:39:59;;;;;;;0.60;0.50;;;22.30;77.50;;;;;;5059302;28;20528;-80
2024/03/11 10:42:28;;;;;;;0.60;0.60;;;23.90;73.90;;;;;;5060091;28;20201;-80
2024/03/11 10:44:55;;;;;;;0.60;0.40;;;25.10;71.50;;;;;;5059479;28;20615;-80
2024/03/11 10:47:24;;;;;;;0.50;0.50;;;25.90;67.80;;;;;;5057853;28;20234;-80
2024/03/11 10:49:54;;;;;;;1.58;0.47;;;26.40;67.60;;;;;;5056511;28;20205;-79
2024/03/11 10:52:25;;;;;;;0.40;0.40;;;26.70;63.20;;;;;;5056677;28;20639;-81
2024/03/11 10:54:54;;;;;;;0.40;0.40;;;27.80;60.50;;;;;;5055527;28;20249;-79
2024/03/11 10:57:35;;;;;;;0.40;0.40;;;26.80;59.20;;;;;;5055508;28;20326;-79
2024/03/11 11:00:10;;;;;;;0.40;0.40;;;26.30;59.20;;;;;;5059075;28;20202;-79
2024/03/11 11:02:41;;;;;;;0.60;0.50;;;25.80;59.80;;;;;;5054793;28;20679;-80
2024/03/11 11:05:09;;;;;;;0.40;0.40;;;24.70;62.40;;;;;;5055522;28;20191;-80
2024/03/11 11:07:39;;;;;;;0.40;0.30;;;22.80;64.70;;;;;;5058671;28;20246;-81
2024/03/11 11:10:11;;;;;;;0.70;0.40;;;21.10;66.90;;;;;;5057079;28;20195;-81
2024/03/11 11:12:38;;;;;;;0.40;0.40;;;20.50;70.10;;;;;;5057092;28;20213;-81
2024/03/11 11:15:07;;;;;;;0.60;0.50;;;19.70;71.40;;;;;;5058270;28;20450;-81
2024/03/11 11:17:37;;;;;;;0.50;0.50;;;19.10;75.20;;;;;;5057036;28;20474;-81
2024/03/11 11:20:17;;;;;;;0.40;0.40;;;18.60;77.40;;;;;;5057183;28;20485;-81
2024/03/11 11:22:49;;;;;;;0.83;0.50;;;18.00;78.00;;;;;;5056525;28;20422;-81
2024/03/11 11:25:33;;;;;;;0.60;0.40;;;17.50;80.10;;;;;;5055945;28;20836;-81
2024/03/11 11:28:02;;;;;;;1.00;0.50;;;16.90;78.80;;;;;;5056630;28;20450;-82
2024/03/11 11:30:30;;;;;;;1.37;0.40;;;16.50;80.80;;;;;;5056494;28;20438;-81
2024/03/11 11:32:56;;;;;;;0.37;0.37;;;16.50;80.00;;;;;;5056011;28;20884;-82
2024/03/11 11:35:34;;;;;;;0.40;0.40;;;16.20;80.90;;;;;;5056466;28;20441;-82
2024/03/11 11:38:29;;;;;;;0.40;0.40;;;16.30;81.60;;;;;;5056900;28;20461;-83
2024/03/11 11:40:57;;;;;;;0.30;0.30;;;16.30;81.40;;;;;;5057173;28;20895;-82
2024/03/11 11:43:44;;;;;;;0.80;0.50;;;16.40;83.00;;;;;;5055450;28;20445;-81
2024/03/11 11:46:11;;;;;;;0.63;0.40;;;16.50;82.80;;;;;;5055516;28;20986;-81
2024/03/11 11:48:39;;;;;;;0.40;0.30;;;16.40;82.10;;;;;;5055427;28;20531;-81
2024/03/11 11:51:06;;;;;;;0.37;0.33;;;16.30;81.40;;;;;;5055450;28;20920;-81
2024/03/11 11:53:37;;;;;;;0.40;0.30;;;15.90;81.80;;;;;;5055070;28;20442;-82
2024/03/11 11:56:05;;;;;;;0.40;0.40;;;16.00;83.70;;;;;;5055135;28;20524;-81
2024/03/11 11:58:32;;;;;;;0.63;0.40;;;16.10;84.50;;;;;;5055700;28;20466;-82
2024/03/11 12:01:01;;;;;;;0.53;0.50;;;16.10;81.60;;;;;;5057220;28;20460;-81
2024/03/11 12:03:31;;;;;;;0.80;0.33;;;16.00;81.20;;;;;;5060151;28;20434;-82
2024/03/11 12:06:11;;;;;;;0.40;0.40;;;16.00;84.30;;;;;;5059807;28;20937;-82
2024/03/11 12:08:41;;;;;;;0.40;0.30;;;15.70;82.30;;;;;;5067190;28;20500;-82
2024/03/11 12:11:14;;;;;;;0.53;0.50;;;15.60;82.80;;;;;;5061827;28;20460;-82
2024/03/11 12:13:42;;;;;;;0.47;0.40;;;15.60;81.20;;;;;;5062594;28;20426;-82
2024/03/11 12:16:10;;;;;;;0.53;0.30;;;15.40;81.40;;;;;;5063725;28;20489;-82
2024/03/11 12:18:39;;;;;;;0.87;0.30;;;15.30;81.40;;;;;;5062703;28;20542;-82
2024/03/11 12:21:08;;;;;;;0.80;0.30;;;15.30;82.90;;;;;;5063070;28;20449;-81
2024/03/11 12:23:35;;;;;;;0.40;0.30;;;15.30;84.80;;;;;;5058513;28;20536;-81
2024/03/11 12:26:06;;;;;;;0.40;0.40;;;15.10;83.00;;;;;;5057624;28;20477;-81
2024/03/11 12:28:33;;;;;;;0.93;0.93;;;15.00;84.30;;;;;;5058051;28;20903;-81
2024/03/11 12:31:00;;;;;;;0.63;0.40;;;14.70;83.20;;;;;;5057999;28;20975;-81
2024/03/11 12:33:28;;;;;;;0.97;0.40;;;14.50;86.40;;;;;;5057723;28;20441;-82
2024/03/11 12:35:58;;;;;;;0.40;0.40;;;14.30;84.60;;;;;;5057996;28;20804;-81
2024/03/11 12:38:29;;;;;;;0.40;0.40;;;14.30;85.60;;;;;;5057639;28;20501;-81
2024/03/11 12:40:57;;;;;;;0.40;0.40;;;14.00;84.00;;;;;;5057601;28;20868;-81
2024/03/11 12:43:31;;;;;;;0.60;0.40;;;14.00;86.90;;;;;;5057293;28;20457;-81
2024/03/11 12:46:00;;;;;;;0.50;0.40;;;13.90;87.10;;;;;;5057450;28;20426;-81
2024/03/11 12:48:28;;;;;;;0.40;0.30;;;13.90;87.90;;;;;;5057434;28;20465;-81
2024/03/11 12:50:56;;;;;;;0.40;0.30;;;13.90;88.10;;;;;;5057554;28;20851;-81
2024/03/11 12:53:25;;;;;;;0.40;0.40;;;13.80;86.20;;;;;;5057692;28;20453;-81
2024/03/11 12:56:01;;;;;;;0.30;0.30;;;13.70;87.70;;;;;;5057368;28;20812;-81
2024/03/11 12:58:32;;;;;;;0.40;0.30;;;13.80;89.30;;;;;;5057218;28;20461;-81
2024/03/11 13:01:04;;;;;;;0.40;0.40;;;13.80;88.70;;;;;;5056180;28;20512;-81
2024/03/11 13:03:32;;;;;;;1.47;0.30;;;13.80;89.40;;;;;;5056447;28;20466;-81
2024/03/11 13:06:03;;;;;;;2.50;0.40;;;13.80;91.40;;;;;;5056142;28;20441;-81
2024/03/11 13:08:31;;;;;;;0.30;0.30;;;13.80;88.50;;;;;;5056186;28;20462;-81
2024/03/11 13:11:03;;;;;;;0.40;0.37;;;13.70;89.00;;;;;;5057158;28;20431;-81
2024/03/11 13:13:32;;;;;;;0.60;0.30;;;13.60;87.20;;;;;;5062913;28;20426;-81
2024/03/11 13:15:59;;;;;;;0.30;0.30;;;13.70;87.60;;;;;;5059020;28;20515;-81
2024/03/11 13:18:27;;;;;;;1.10;0.50;;;13.60;87.60;;;;;;5058329;28;20477;-81
2024/03/11 13:20:54;;;;;;;0.40;0.40;;;13.70;89.40;;;;;;5070778;28;20434;-82
2024/03/11 13:23:21;;;;;;;0.40;0.40;;;13.70;88.30;;;;;;5064804;28;20437;-81
2024/03/11 13:25:49;;;;;;;0.50;0.50;;;13.70;87.90;;;;;;5061394;28;20477;-81
2024/03/11 13:28:18;;;;;;;0.50;0.40;;;13.60;87.50;;;;;;5061427;28;20465;-81
2024/03/11 13:30:46;;;;;;;0.80;0.30;;;13.50;85.20;;;;;;5060729;28;20430;-81
2024/03/11 13:33:13;;;;;;;0.40;0.40;;;13.30;86.70;;;;;;5060335;28;20445;-81
2024/03/11 13:35:43;;;;;;;0.40;0.40;;;13.20;87.50;;;;;;5059585;28;20445;-81
2024/03/11 13:38:11;;;;;;;0.30;0.30;;;13.30;89.00;;;;;;5058898;28;20488;-82
2024/03/11 13:40:38;;;;;;;0.40;0.30;;;13.20;87.40;;;;;;5059111;28;20449;-81
2024/03/11 13:43:11;;;;;;;0.40;0.30;;;13.40;87.60;;;;;;5058720;28;20454;-81
2024/03/11 13:45:38;;;;;;;0.30;0.30;;;13.30;89.60;;;;;;5058064;28;20442;-81
2024/03/11 13:48:09;;;;;;;0.40;0.30;;;13.40;89.20;;;;;;5058314;28;20466;-81
2024/03/11 13:50:38;;;;;;;0.40;0.40;;;13.20;89.20;;;;;;5058203;28;20453;-81
2024/03/11 13:53:07;;;;;;;0.67;0.30;;;13.20;89.10;;;;;;5058009;28;20446;-81
2024/03/11 13:55:34;;;;;;;0.40;0.30;;;13.10;89.80;;;;;;5057080;28;20453;-81
2024/03/11 13:58:02;;;;;;;0.40;0.40;;;13.00;89.40;;;;;;5056766;28;20490;-81
2024/03/11 14:00:29;;;;;;;0.90;0.30;;;13.10;89.40;;;;;;5063891;28;20501;-81
2024/03/11 14:03:01;;;;;;;1.47;0.37;;;13.00;90.70;;;;;;5061843;28;20848;-81
2024/03/11 14:05:29;;;;;;;0.40;0.40;;;13.30;89.90;;;;;;5059481;28;20434;-81
2024/03/11 14:07:56;;;;;;;0.40;0.40;;;13.10;88.80;;;;;;5058594;28;20460;-81
2024/03/11 14:10:24;;;;;;;0.40;0.33;;;12.90;88.30;;;;;;5057501;28;20454;-81
2024/03/11 14:12:51;;;;;;;0.50;0.30;;;12.90;89.80;;;;;;5057043;28;20454;-81
2024/03/11 14:15:18;;;;;;;0.43;0.37;;;13.00;86.60;;;;;;5056969;28;20499;-82
2024/03/11 14:17:47;;;;;;;0.40;0.30;;;13.00;88.10;;;;;;5055681;28;21021;-81
2024/03/11 14:20:20;;;;;;;0.40;0.40;;;13.10;89.20;;;;;;5056012;28;20453;-81
2024/03/11 14:22:48;;;;;;;0.40;0.30;;;13.10;88.70;;;;;;5055197;28;20434;-81
2024/03/11 14:25:16;;;;;;;0.40;0.30;;;13.10;89.40;;;;;;5055109;28;20933;-81
2024/03/11 14:27:45;;;;;;;1.47;0.40;;;13.10;89.40;;;;;;5055341;28;20556;-81
2024/03/11 14:30:14;;;;;;;0.50;0.40;;;13.10;88.20;;;;;;5054941;28;20450;-81